sensor_id;sensor_type;location;lat;lon;timestamp;pressure;altitude;pressure_sealevel;temperature;humidity
61359;BME280;47228;46.762;23.598;2023-05-23T00:01:16;97094.21;;;13.98;68.38
61359;BME280;47228;46.762;23.598;2023-05-23T00:03:45;97087.05;;;13.91;69.04
61359;BME280;47228;46.762;23.598;2023-05-23T00:06:18;97089.84;;;13.89;69.12
61359;BME280;47228;46.762;23.598;2023-05-23T00:08:48;97089.27;;;13.82;69.28
61359;BME280;47228;46.762;23.598;2023-05-23T00:11:17;97096.13;;;13.77;69.31
61359;BME280;47228;46.762;23.598;2023-05-23T00:13:47;97092.94;;;13.70;69.66
61359;BME280;47228;46.762;23.598;2023-05-23T00:16:14;97092.13;;;13.59;69.76
61359;BME280;47228;46.762;23.598;2023-05-23T00:18:43;97102.27;;;13.53;69.86
61359;BME280;47228;46.762;23.598;2023-05-23T00:21:12;97094.12;;;13.49;70.13
61359;BME280;47228;46.762;23.598;2023-05-23T00:23:40;97089.81;;;13.44;70.39
61359;BME280;47228;46.762;23.598;2023-05-23T00:26:11;97089.90;;;13.39;70.58
61359;BME280;47228;46.762;23.598;2023-05-23T00:28:39;97082.20;;;13.32;70.76
61359;BME280;47228;46.762;23.598;2023-05-23T00:31:07;97087.19;;;13.27;71.25
61359;BME280;47228;46.762;23.598;2023-05-23T00:33:34;97083.53;;;13.24;71.57
61359;BME280;47228;46.762;23.598;2023-05-23T00:36:03;97088.69;;;13.16;71.62
61359;BME280;47228;46.762;23.598;2023-05-23T00:38:31;97085.48;;;13.11;71.81
61359;BME280;47228;46.762;23.598;2023-05-23T00:41:00;97083.34;;;13.05;72.04
61359;BME280;47228;46.762;23.598;2023-05-23T00:43:28;97079.34;;;13.03;72.17
61359;BME280;47228;46.762;23.598;2023-05-23T00:45:57;97082.61;;;13.02;72.52
61359;BME280;47228;46.762;23.598;2023-05-23T00:48:26;97082.50;;;13.01;72.41
61359;BME280;47228;46.762;23.598;2023-05-23T00:50:55;97074.71;;;12.98;72.24
61359;BME280;47228;46.762;23.598;2023-05-23T00:53:23;97076.80;;;12.92;72.29
61359;BME280;47228;46.762;23.598;2023-05-23T00:55:52;97076.15;;;12.88;72.20
61359;BME280;47228;46.762;23.598;2023-05-23T00:58:20;97072.58;;;12.89;72.37
61359;BME280;47228;46.762;23.598;2023-05-23T01:00:48;97076.10;;;12.92;72.57
61359;BME280;47228;46.762;23.598;2023-05-23T01:03:17;97076.75;;;12.92;72.60
61359;BME280;47228;46.762;23.598;2023-05-23T01:05:45;97066.97;;;12.91;72.36
61359;BME280;47228;46.762;23.598;2023-05-23T01:08:14;97059.58;;;12.88;72.12
61359;BME280;47228;46.762;23.598;2023-05-23T01:10:42;97065.41;;;12.87;72.40
61359;BME280;47228;46.762;23.598;2023-05-23T01:13:20;97063.44;;;12.87;72.48
61359;BME280;47228;46.762;23.598;2023-05-23T01:21:16;97058.89;;;12.84;72.48
61359;BME280;47228;46.762;23.598;2023-05-23T01:24:13;97061.54;;;12.79;72.51
61359;BME280;47228;46.762;23.598;2023-05-23T01:29:41;97066.73;;;12.73;73.01
61359;BME280;47228;46.762;23.598;2023-05-23T01:32:11;97066.11;;;12.71;72.83
61359;BME280;47228;46.762;23.598;2023-05-23T01:34:41;97065.84;;;12.69;72.93
61359;BME280;47228;46.762;23.598;2023-05-23T01:37:11;97063.59;;;12.66;73.04
61359;BME280;47228;46.762;23.598;2023-05-23T01:39:41;97057.40;;;12.65;73.04
61359;BME280;47228;46.762;23.598;2023-05-23T01:42:09;97056.45;;;12.63;73.14
61359;BME280;47228;46.762;23.598;2023-05-23T01:44:38;97058.36;;;12.61;73.09
61359;BME280;47228;46.762;23.598;2023-05-23T01:47:08;97058.36;;;12.57;72.89
61359;BME280;47228;46.762;23.598;2023-05-23T01:49:38;97060.05;;;12.54;73.02
61359;BME280;47228;46.762;23.598;2023-05-23T01:52:07;97067.31;;;12.52;72.95
61359;BME280;47228;46.762;23.598;2023-05-23T01:54:38;97069.20;;;12.52;73.02
61359;BME280;47228;46.762;23.598;2023-05-23T01:57:09;97063.25;;;12.49;72.94
61359;BME280;47228;46.762;23.598;2023-05-23T01:59:38;97068.49;;;12.46;72.72
61359;BME280;47228;46.762;23.598;2023-05-23T02:02:07;97064.20;;;12.45;72.88
61359;BME280;47228;46.762;23.598;2023-05-23T02:04:36;97069.63;;;12.44;72.44
61359;BME280;47228;46.762;23.598;2023-05-23T02:07:04;97063.83;;;12.42;72.40
61359;BME280;47228;46.762;23.598;2023-05-23T02:09:32;97064.55;;;12.44;72.96
61359;BME280;47228;46.762;23.598;2023-05-23T02:12:00;97067.36;;;12.45;72.84
61359;BME280;47228;46.762;23.598;2023-05-23T02:14:28;97066.88;;;12.45;72.95
61359;BME280;47228;46.762;23.598;2023-05-23T02:16:57;97066.17;;;12.41;72.76
61359;BME280;47228;46.762;23.598;2023-05-23T02:19:25;97069.94;;;12.37;72.86
61359;BME280;47228;46.762;23.598;2023-05-23T02:21:54;97068.61;;;12.35;73.31
61359;BME280;47228;46.762;23.598;2023-05-23T02:24:22;97065.36;;;12.33;73.41
61359;BME280;47228;46.762;23.598;2023-05-23T02:26:50;97069.40;;;12.31;73.41
61359;BME280;47228;46.762;23.598;2023-05-23T02:29:19;97076.77;;;12.27;73.48
61359;BME280;47228;46.762;23.598;2023-05-23T02:31:47;97082.27;;;12.26;73.51
61359;BME280;47228;46.762;23.598;2023-05-23T02:34:16;97077.34;;;12.23;73.31
61359;BME280;47228;46.762;23.598;2023-05-23T02:36:44;97073.63;;;12.17;73.31
61359;BME280;47228;46.762;23.598;2023-05-23T02:39:12;97076.42;;;12.12;73.70
61359;BME280;47228;46.762;23.598;2023-05-23T02:41:40;97078.35;;;12.08;74.05
61359;BME280;47228;46.762;23.598;2023-05-23T02:44:08;97075.10;;;12.03;74.33
61359;BME280;47228;46.762;23.598;2023-05-23T02:46:36;97069.98;;;11.99;74.41
61359;BME280;47228;46.762;23.598;2023-05-23T02:49:04;97069.98;;;11.94;74.34
61359;BME280;47228;46.762;23.598;2023-05-23T02:51:32;97069.18;;;11.87;74.44
61359;BME280;47228;46.762;23.598;2023-05-23T02:54:00;97075.31;;;11.82;74.61
61359;BME280;47228;46.762;23.598;2023-05-23T02:56:28;97077.77;;;11.79;75.09
61359;BME280;47228;46.762;23.598;2023-05-23T02:58:56;97078.11;;;11.76;75.42
61359;BME280;47228;46.762;23.598;2023-05-23T03:01:24;97077.25;;;11.77;75.36
61359;BME280;47228;46.762;23.598;2023-05-23T03:03:52;97080.32;;;11.77;75.47
61359;BME280;47228;46.762;23.598;2023-05-23T03:06:20;97074.98;;;11.75;75.89
61359;BME280;47228;46.762;23.598;2023-05-23T03:08:49;97078.53;;;11.75;76.23
61359;BME280;47228;46.762;23.598;2023-05-23T03:11:17;97076.98;;;11.74;75.97
61359;BME280;47228;46.762;23.598;2023-05-23T03:13:45;97076.57;;;11.74;76.05
61359;BME280;47228;46.762;23.598;2023-05-23T03:16:13;97079.31;;;11.74;76.16
61359;BME280;47228;46.762;23.598;2023-05-23T03:18:41;97078.36;;;11.72;76.34
61359;BME280;47228;46.762;23.598;2023-05-23T03:21:09;97080.80;;;11.70;76.60
61359;BME280;47228;46.762;23.598;2023-05-23T03:23:37;97081.51;;;11.67;76.55
61359;BME280;47228;46.762;23.598;2023-05-23T03:26:05;97080.77;;;11.67;76.99
61359;BME280;47228;46.762;23.598;2023-05-23T03:28:33;97077.02;;;11.71;77.15
61359;BME280;47228;46.762;23.598;2023-05-23T03:31:01;97074.27;;;11.74;77.29
61359;BME280;47228;46.762;23.598;2023-05-23T03:33:29;97074.50;;;11.78;77.28
61359;BME280;47228;46.762;23.598;2023-05-23T03:35:56;97074.91;;;11.83;77.32
61359;BME280;47228;46.762;23.598;2023-05-23T03:38:25;97079.13;;;11.88;77.40
61359;BME280;47228;46.762;23.598;2023-05-23T03:40:53;97077.29;;;11.91;77.29
61359;BME280;47228;46.762;23.598;2023-05-23T03:43:21;97078.23;;;11.94;77.40
61359;BME280;47228;46.762;23.598;2023-05-23T03:45:49;97080.14;;;11.98;77.29
61359;BME280;47228;46.762;23.598;2023-05-23T03:48:17;97075.30;;;12.02;77.17
61359;BME280;47228;46.762;23.598;2023-05-23T03:50:46;97078.61;;;12.06;77.03
61359;BME280;47228;46.762;23.598;2023-05-23T03:53:14;97077.46;;;12.08;76.67
61359;BME280;47228;46.762;23.598;2023-05-23T03:55:42;97075.90;;;12.05;76.34
61359;BME280;47228;46.762;23.598;2023-05-23T03:58:10;97074.21;;;12.01;76.15
61359;BME280;47228;46.762;23.598;2023-05-23T04:00:38;97074.14;;;11.99;76.18
61359;BME280;47228;46.762;23.598;2023-05-23T04:03:06;97079.78;;;11.97;76.03
61359;BME280;47228;46.762;23.598;2023-05-23T04:05:35;97079.70;;;11.96;76.08
61359;BME280;47228;46.762;23.598;2023-05-23T04:08:03;97085.05;;;11.97;76.20
61359;BME280;47228;46.762;23.598;2023-05-23T04:10:31;97085.92;;;12.01;76.55
61359;BME280;47228;46.762;23.598;2023-05-23T04:12:59;97086.75;;;12.07;76.47
61359;BME280;47228;46.762;23.598;2023-05-23T04:15:27;97087.86;;;12.12;76.00
61359;BME280;47228;46.762;23.598;2023-05-23T04:17:55;97086.90;;;12.13;75.59
61359;BME280;47228;46.762;23.598;2023-05-23T04:20:23;97084.99;;;12.16;75.06
61359;BME280;47228;46.762;23.598;2023-05-23T04:22:51;97084.48;;;12.18;75.20
61359;BME280;47228;46.762;23.598;2023-05-23T04:25:19;97087.95;;;12.22;75.26
61359;BME280;47228;46.762;23.598;2023-05-23T04:27:47;97087.46;;;12.27;74.95
61359;BME280;47228;46.762;23.598;2023-05-23T04:30:15;97088.86;;;12.34;75.05
61359;BME280;47228;46.762;23.598;2023-05-23T04:32:45;97090.30;;;12.41;74.95
61359;BME280;47228;46.762;23.598;2023-05-23T04:35:13;97091.02;;;12.47;74.66
61359;BME280;47228;46.762;23.598;2023-05-23T04:37:41;97086.19;;;12.51;74.35
61359;BME280;47228;46.762;23.598;2023-05-23T04:40:10;97084.16;;;12.55;74.00
61359;BME280;47228;46.762;23.598;2023-05-23T04:42:38;97081.48;;;12.60;73.80
61359;BME280;47228;46.762;23.598;2023-05-23T04:45:09;97081.86;;;12.67;73.48
61359;BME280;47228;46.762;23.598;2023-05-23T04:47:38;97084.16;;;12.73;73.11
61359;BME280;47228;46.762;23.598;2023-05-23T04:50:06;97082.04;;;12.78;72.93
61359;BME280;47228;46.762;23.598;2023-05-23T04:52:34;97078.30;;;12.85;72.57
61359;BME280;47228;46.762;23.598;2023-05-23T04:55:02;97077.14;;;12.91;72.00
61359;BME280;47228;46.762;23.598;2023-05-23T04:57:31;97079.80;;;12.94;71.34
61359;BME280;47228;46.762;23.598;2023-05-23T04:59:59;97078.73;;;12.98;71.14
61359;BME280;47228;46.762;23.598;2023-05-23T05:02:27;97081.68;;;13.03;70.80
61359;BME280;47228;46.762;23.598;2023-05-23T05:05:00;97080.80;;;13.09;70.51
61359;BME280;47228;46.762;23.598;2023-05-23T05:07:29;97078.69;;;13.16;70.40
61359;BME280;47228;46.762;23.598;2023-05-23T05:09:57;97077.23;;;13.23;69.98
61359;BME280;47228;46.762;23.598;2023-05-23T05:12:27;97076.99;;;13.31;69.46
61359;BME280;47228;46.762;23.598;2023-05-23T05:14:55;97077.98;;;13.40;69.06
61359;BME280;47228;46.762;23.598;2023-05-23T05:17:23;97073.11;;;13.48;68.95
61359;BME280;47228;46.762;23.598;2023-05-23T05:19:51;97077.55;;;13.56;68.84
61359;BME280;47228;46.762;23.598;2023-05-23T05:22:19;97077.75;;;13.65;68.71
61359;BME280;47228;46.762;23.598;2023-05-23T05:24:47;97082.39;;;13.73;68.14
61359;BME280;47228;46.762;23.598;2023-05-23T05:27:15;97080.30;;;13.80;67.98
61359;BME280;47228;46.762;23.598;2023-05-23T05:29:43;97079.97;;;13.85;67.52
61359;BME280;47228;46.762;23.598;2023-05-23T05:32:11;97077.73;;;13.89;67.33
61359;BME280;47228;46.762;23.598;2023-05-23T05:34:39;97079.91;;;13.96;67.50
61359;BME280;47228;46.762;23.598;2023-05-23T05:37:09;97078.64;;;14.03;67.08
61359;BME280;47228;46.762;23.598;2023-05-23T05:39:40;97073.45;;;14.11;67.22
61359;BME280;47228;46.762;23.598;2023-05-23T05:42:08;97074.49;;;14.19;67.19
61359;BME280;47228;46.762;23.598;2023-05-23T05:44:36;97075.11;;;14.28;66.49
61359;BME280;47228;46.762;23.598;2023-05-23T05:47:04;97072.65;;;14.35;66.48
61359;BME280;47228;46.762;23.598;2023-05-23T05:49:33;97074.58;;;14.43;66.42
61359;BME280;47228;46.762;23.598;2023-05-23T05:52:01;97075.12;;;14.54;66.45
61359;BME280;47228;46.762;23.598;2023-05-23T05:54:28;97074.56;;;14.66;66.53
61359;BME280;47228;46.762;23.598;2023-05-23T05:56:56;97074.08;;;14.76;66.06
61359;BME280;47228;46.762;23.598;2023-05-23T05:59:25;97069.95;;;14.86;65.45
61359;BME280;47228;46.762;23.598;2023-05-23T06:01:53;97070.39;;;14.96;65.75
61359;BME280;47228;46.762;23.598;2023-05-23T06:04:21;97071.41;;;15.07;65.62
61359;BME280;47228;46.762;23.598;2023-05-23T06:06:51;97073.72;;;15.17;65.57
61359;BME280;47228;46.762;23.598;2023-05-23T06:09:22;97074.20;;;15.29;65.39
61359;BME280;47228;46.762;23.598;2023-05-23T06:11:50;97070.85;;;15.39;65.00
61359;BME280;47228;46.762;23.598;2023-05-23T06:14:18;97069.98;;;15.48;64.64
61359;BME280;47228;46.762;23.598;2023-05-23T06:16:46;97069.05;;;15.58;64.80
61359;BME280;47228;46.762;23.598;2023-05-23T06:19:14;97072.88;;;15.69;64.82
61359;BME280;47228;46.762;23.598;2023-05-23T06:21:42;97075.23;;;15.79;64.74
61359;BME280;47228;46.762;23.598;2023-05-23T06:24:10;97076.61;;;15.89;65.02
61359;BME280;47228;46.762;23.598;2023-05-23T06:26:38;97078.42;;;16.02;65.12
61359;BME280;47228;46.762;23.598;2023-05-23T06:29:06;97074.20;;;16.13;65.10
61359;BME280;47228;46.762;23.598;2023-05-23T06:31:34;97073.60;;;16.25;65.29
61359;BME280;47228;46.762;23.598;2023-05-23T06:34:02;97071.86;;;16.38;65.34
61359;BME280;47228;46.762;23.598;2023-05-23T06:36:30;97072.17;;;16.52;65.36
61359;BME280;47228;46.762;23.598;2023-05-23T06:38:58;97070.58;;;16.65;65.17
61359;BME280;47228;46.762;23.598;2023-05-23T06:41:26;97070.40;;;16.77;64.31
61359;BME280;47228;46.762;23.598;2023-05-23T06:43:54;97068.41;;;16.87;63.91
61359;BME280;47228;46.762;23.598;2023-05-23T06:46:22;97072.11;;;16.97;63.62
61359;BME280;47228;46.762;23.598;2023-05-23T06:48:53;97070.81;;;17.07;63.73
61359;BME280;47228;46.762;23.598;2023-05-23T06:51:40;97068.67;;;17.19;63.69
61359;BME280;47228;46.762;23.598;2023-05-23T06:54:09;97065.36;;;17.32;63.58
61359;BME280;47228;46.762;23.598;2023-05-23T06:56:37;97063.60;;;17.45;63.16
61359;BME280;47228;46.762;23.598;2023-05-23T06:59:05;97061.16;;;17.56;62.44
61359;BME280;47228;46.762;23.598;2023-05-23T07:01:33;97054.91;;;17.66;61.57
61359;BME280;47228;46.762;23.598;2023-05-23T07:04:01;97050.10;;;17.76;61.02
61359;BME280;47228;46.762;23.598;2023-05-23T07:06:29;97048.39;;;17.86;61.32
61359;BME280;47228;46.762;23.598;2023-05-23T07:08:58;97051.64;;;17.98;61.11
61359;BME280;47228;46.762;23.598;2023-05-23T07:11:26;97046.89;;;18.09;60.84
61359;BME280;47228;46.762;23.598;2023-05-23T07:13:54;97042.12;;;18.20;60.10
61359;BME280;47228;46.762;23.598;2023-05-23T07:16:22;97038.84;;;18.30;59.62
61359;BME280;47228;46.762;23.598;2023-05-23T07:18:49;97041.16;;;18.42;59.56
61359;BME280;47228;46.762;23.598;2023-05-23T07:21:17;97039.42;;;18.54;58.70
61359;BME280;47228;46.762;23.598;2023-05-23T07:23:45;97034.02;;;18.64;57.16
61359;BME280;47228;46.762;23.598;2023-05-23T07:26:13;97032.98;;;18.75;57.57
61359;BME280;47228;46.762;23.598;2023-05-23T07:28:41;97033.45;;;18.89;57.77
61359;BME280;47228;46.762;23.598;2023-05-23T07:31:09;97031.56;;;19.05;57.29
61359;BME280;47228;46.762;23.598;2023-05-23T07:33:38;97031.67;;;19.21;56.65
61359;BME280;47228;46.762;23.598;2023-05-23T07:36:06;97028.39;;;19.36;55.10
61359;BME280;47228;46.762;23.598;2023-05-23T07:38:34;97029.42;;;19.50;55.19
61359;BME280;47228;46.762;23.598;2023-05-23T07:41:03;97026.93;;;19.64;54.05
61359;BME280;47228;46.762;23.598;2023-05-23T07:43:39;97024.29;;;19.76;52.38
61359;BME280;47228;46.762;23.598;2023-05-23T07:46:07;97021.20;;;19.86;52.75
61359;BME280;47228;46.762;23.598;2023-05-23T07:48:35;97024.27;;;19.98;53.49
61359;BME280;47228;46.762;23.598;2023-05-23T07:51:03;97022.42;;;20.14;52.64
61359;BME280;47228;46.762;23.598;2023-05-23T07:53:31;97023.00;;;20.31;52.45
61359;BME280;47228;46.762;23.598;2023-05-23T07:55:59;97019.75;;;20.47;52.15
61359;BME280;47228;46.762;23.598;2023-05-23T07:58:27;97020.83;;;20.63;51.67
61359;BME280;47228;46.762;23.598;2023-05-23T08:00:55;97021.27;;;20.82;50.98
61359;BME280;47228;46.762;23.598;2023-05-23T08:03:24;97021.30;;;20.98;49.94
61359;BME280;47228;46.762;23.598;2023-05-23T08:05:52;97021.73;;;21.16;50.32
61359;BME280;47228;46.762;23.598;2023-05-23T08:08:20;97022.98;;;21.36;52.18
61359;BME280;47228;46.762;23.598;2023-05-23T08:10:48;97022.69;;;21.55;50.70
61359;BME280;47228;46.762;23.598;2023-05-23T08:13:16;97024.12;;;21.72;48.55
61359;BME280;47228;46.762;23.598;2023-05-23T08:15:45;97021.89;;;21.87;48.06
61359;BME280;47228;46.762;23.598;2023-05-23T08:18:12;97018.81;;;21.98;45.30
61359;BME280;47228;46.762;23.598;2023-05-23T08:20:41;97019.64;;;22.06;47.29
61359;BME280;47228;46.762;23.598;2023-05-23T08:23:10;97018.23;;;22.20;47.05
61359;BME280;47228;46.762;23.598;2023-05-23T08:25:39;97015.12;;;22.33;45.40
61359;BME280;47228;46.762;23.598;2023-05-23T08:28:07;97016.87;;;22.45;46.55
61359;BME280;47228;46.762;23.598;2023-05-23T08:30:35;97016.23;;;22.60;44.81
61359;BME280;47228;46.762;23.598;2023-05-23T08:33:03;97018.45;;;22.73;44.57
61359;BME280;47228;46.762;23.598;2023-05-23T08:35:31;97023.20;;;22.83;43.71
61359;BME280;47228;46.762;23.598;2023-05-23T08:38:04;97025.42;;;22.94;43.35
61359;BME280;47228;46.762;23.598;2023-05-23T08:40:35;97018.52;;;23.03;42.97
61359;BME280;47228;46.762;23.598;2023-05-23T08:43:03;97018.91;;;23.14;43.90
61359;BME280;47228;46.762;23.598;2023-05-23T08:45:31;97021.30;;;23.28;44.03
61359;BME280;47228;46.762;23.598;2023-05-23T08:48:03;97011.85;;;23.38;42.19
61359;BME280;47228;46.762;23.598;2023-05-23T08:50:36;97007.81;;;23.43;41.18
61359;BME280;47228;46.762;23.598;2023-05-23T08:53:05;97007.10;;;23.51;41.15
61359;BME280;47228;46.762;23.598;2023-05-23T08:55:37;97007.67;;;23.62;40.95
61359;BME280;47228;46.762;23.598;2023-05-23T08:58:05;97010.98;;;23.71;40.06
61359;BME280;47228;46.762;23.598;2023-05-23T09:00:33;97007.84;;;23.80;39.84
61359;BME280;47228;46.762;23.598;2023-05-23T09:03:02;97006.98;;;23.88;40.31
61359;BME280;47228;46.762;23.598;2023-05-23T09:05:30;97006.41;;;24.00;40.76
61359;BME280;47228;46.762;23.598;2023-05-23T09:07:58;97006.31;;;24.08;39.86
61359;BME280;47228;46.762;23.598;2023-05-23T09:10:26;97008.09;;;24.16;38.96
61359;BME280;47228;46.762;23.598;2023-05-23T09:12:56;97008.60;;;24.21;38.11
61359;BME280;47228;46.762;23.598;2023-05-23T09:15:25;97005.95;;;24.23;38.31
61359;BME280;47228;46.762;23.598;2023-05-23T09:17:58;96999.44;;;24.23;37.49
61359;BME280;47228;46.762;23.598;2023-05-23T09:20:28;97006.38;;;24.26;38.97
61359;BME280;47228;46.762;23.598;2023-05-23T09:22:56;97006.38;;;24.39;38.21
61359;BME280;47228;46.762;23.598;2023-05-23T09:25:24;97004.50;;;24.52;37.96
61359;BME280;47228;46.762;23.598;2023-05-23T09:27:52;97000.93;;;24.62;38.77
61359;BME280;47228;46.762;23.598;2023-05-23T09:30:21;97004.00;;;24.73;38.65
61359;BME280;47228;46.762;23.598;2023-05-23T09:32:57;97002.27;;;24.84;37.59
61359;BME280;47228;46.762;23.598;2023-05-23T09:35:30;97008.15;;;24.91;38.18
61359;BME280;47228;46.762;23.598;2023-05-23T09:37:58;97005.29;;;24.95;37.49
61359;BME280;47228;46.762;23.598;2023-05-23T09:40:30;97004.70;;;24.99;37.58
61359;BME280;47228;46.762;23.598;2023-05-23T09:43:03;97002.27;;;25.08;36.89
61359;BME280;47228;46.762;23.598;2023-05-23T09:45:32;96998.96;;;25.11;36.97
61359;BME280;47228;46.762;23.598;2023-05-23T09:48:00;97006.00;;;25.21;37.56
61359;BME280;47228;46.762;23.598;2023-05-23T09:50:32;97000.33;;;25.33;37.09
61359;BME280;47228;46.762;23.598;2023-05-23T09:53:00;97000.15;;;25.45;37.49
61359;BME280;47228;46.762;23.598;2023-05-23T09:55:28;96996.02;;;25.57;36.55
61359;BME280;47228;46.762;23.598;2023-05-23T09:57:58;96992.48;;;25.70;36.71
61359;BME280;47228;46.762;23.598;2023-05-23T10:00:26;96987.04;;;25.84;35.92
61359;BME280;47228;46.762;23.598;2023-05-23T10:03:15;96985.91;;;25.98;35.56
61359;BME280;47228;46.762;23.598;2023-05-23T10:05:48;96977.79;;;26.12;35.59
61359;BME280;47228;46.762;23.598;2023-05-23T10:08:35;96975.17;;;26.27;34.87
61359;BME280;47228;46.762;23.598;2023-05-23T10:13:48;96973.83;;;26.58;33.71
61359;BME280;47228;46.762;23.598;2023-05-23T10:16:27;96968.35;;;26.71;32.78
61359;BME280;47228;46.762;23.598;2023-05-23T10:19:06;96964.18;;;26.79;33.09
61359;BME280;47228;46.762;23.598;2023-05-23T10:21:43;96961.80;;;26.95;32.66
61359;BME280;47228;46.762;23.598;2023-05-23T10:24:16;96961.48;;;27.14;32.48
61359;BME280;47228;46.762;23.598;2023-05-23T10:26:45;96960.42;;;27.33;31.63
61359;BME280;47228;46.762;23.598;2023-05-23T10:29:13;96954.91;;;27.50;30.29
61359;BME280;47228;46.762;23.598;2023-05-23T10:31:41;96953.15;;;27.66;30.52
61359;BME280;47228;46.762;23.598;2023-05-23T10:34:17;96954.89;;;27.78;30.46
61359;BME280;47228;46.762;23.598;2023-05-23T10:37:00;96948.14;;;27.94;30.39
61359;BME280;47228;46.762;23.598;2023-05-23T10:42:16;96944.71;;;28.26;30.66
61359;BME280;47228;46.762;23.598;2023-05-23T10:44:46;96948.75;;;28.45;29.01
61359;BME280;47228;46.762;23.598;2023-05-23T10:47:25;96945.70;;;28.51;27.39
61359;BME280;47228;46.762;23.598;2023-05-23T10:49:55;96951.47;;;28.53;28.90
61359;BME280;47228;46.762;23.598;2023-05-23T10:52:24;96947.14;;;28.63;28.10
61359;BME280;47228;46.762;23.598;2023-05-23T10:54:55;96944.81;;;28.63;27.83
61359;BME280;47228;46.762;23.598;2023-05-23T10:57:26;96946.29;;;28.72;27.96
61359;BME280;47228;46.762;23.598;2023-05-23T10:59:54;96947.39;;;28.90;27.51
61359;BME280;47228;46.762;23.598;2023-05-23T11:02:27;96949.17;;;29.08;27.34
61359;BME280;47228;46.762;23.598;2023-05-23T11:08:06;96946.23;;;29.08;26.88
61359;BME280;47228;46.762;23.598;2023-05-23T11:13:20;96937.38;;;28.96;27.63
61359;BME280;47228;46.762;23.598;2023-05-23T11:15:49;96935.73;;;28.98;27.82
61359;BME280;47228;46.762;23.598;2023-05-23T11:18:26;96934.00;;;29.03;27.76
61359;BME280;47228;46.762;23.598;2023-05-23T11:20:57;96933.97;;;29.11;28.30
61359;BME280;47228;46.762;23.598;2023-05-23T11:23:38;96931.87;;;29.18;27.17
61359;BME280;47228;46.762;23.598;2023-05-23T11:26:30;96933.05;;;29.22;27.27
61359;BME280;47228;46.762;23.598;2023-05-23T11:28:58;96931.83;;;29.25;26.85
61359;BME280;47228;46.762;23.598;2023-05-23T11:31:26;96928.25;;;29.24;27.08
61359;BME280;47228;46.762;23.598;2023-05-23T11:33:54;96929.64;;;29.26;26.93
61359;BME280;47228;46.762;23.598;2023-05-23T11:36:23;96923.34;;;29.29;27.05
61359;BME280;47228;46.762;23.598;2023-05-23T11:38:51;96925.05;;;29.31;27.63
61359;BME280;47228;46.762;23.598;2023-05-23T11:41:19;96921.67;;;29.40;26.86
61359;BME280;47228;46.762;23.598;2023-05-23T11:43:52;96910.09;;;29.48;26.81
61359;BME280;47228;46.762;23.598;2023-05-23T11:46:20;96914.64;;;29.55;28.17
61359;BME280;47228;46.762;23.598;2023-05-23T11:48:48;96911.25;;;29.61;27.48
61359;BME280;47228;46.762;23.598;2023-05-23T11:51:16;96906.71;;;29.63;26.80
61359;BME280;47228;46.762;23.598;2023-05-23T11:53:45;96910.70;;;29.66;27.12
61359;BME280;47228;46.762;23.598;2023-05-23T11:56:14;96910.77;;;29.58;26.30
61359;BME280;47228;46.762;23.598;2023-05-23T11:58:42;96910.68;;;29.31;25.94
61359;BME280;47228;46.762;23.598;2023-05-23T12:01:12;96904.23;;;28.83;25.21
61359;BME280;47228;46.762;23.598;2023-05-23T12:03:47;96902.15;;;28.31;25.10
61359;BME280;47228;46.762;23.598;2023-05-23T12:06:20;96899.96;;;27.78;26.87
61359;BME280;47228;46.762;23.598;2023-05-23T12:08:50;96898.56;;;27.44;27.84
61359;BME280;47228;46.762;23.598;2023-05-23T12:11:18;96900.10;;;27.19;28.06
61359;BME280;47228;46.762;23.598;2023-05-23T12:13:47;96899.83;;;26.97;27.86
61359;BME280;47228;46.762;23.598;2023-05-23T12:16:15;96900.96;;;26.74;28.27
61359;BME280;47228;46.762;23.598;2023-05-23T12:18:43;96903.95;;;26.57;28.93
61359;BME280;47228;46.762;23.598;2023-05-23T12:21:12;96895.98;;;26.45;27.78
61359;BME280;47228;46.762;23.598;2023-05-23T12:23:40;96894.05;;;26.25;28.16
61359;BME280;47228;46.762;23.598;2023-05-23T12:26:08;96891.21;;;26.17;29.31
61359;BME280;47228;46.762;23.598;2023-05-23T12:28:40;96891.40;;;26.13;29.72
61359;BME280;47228;46.762;23.598;2023-05-23T12:31:19;96886.14;;;26.05;29.09
61359;BME280;47228;46.762;23.598;2023-05-23T12:33:51;96879.42;;;25.94;29.26
61359;BME280;47228;46.762;23.598;2023-05-23T12:36:27;96881.44;;;25.82;30.07
61359;BME280;47228;46.762;23.598;2023-05-23T12:39:04;96882.10;;;25.72;31.02
61359;BME280;47228;46.762;23.598;2023-05-23T12:41:32;96875.92;;;25.64;30.00
61359;BME280;47228;46.762;23.598;2023-05-23T12:44:01;96874.27;;;25.55;29.43
61359;BME280;47228;46.762;23.598;2023-05-23T12:46:29;96872.16;;;25.40;28.57
61359;BME280;47228;46.762;23.598;2023-05-23T12:48:57;96872.55;;;25.18;28.47
61359;BME280;47228;46.762;23.598;2023-05-23T12:51:26;96870.16;;;25.01;29.80
61359;BME280;47228;46.762;23.598;2023-05-23T12:53:54;96871.20;;;24.92;31.13
61359;BME280;47228;46.762;23.598;2023-05-23T12:56:22;96870.72;;;24.84;31.21
61359;BME280;47228;46.762;23.598;2023-05-23T12:58:50;96868.60;;;24.81;31.65
61359;BME280;47228;46.762;23.598;2023-05-23T13:01:19;96869.27;;;24.86;31.86
61359;BME280;47228;46.762;23.598;2023-05-23T13:03:47;96864.17;;;24.95;31.62
61359;BME280;47228;46.762;23.598;2023-05-23T13:06:15;96863.27;;;25.06;31.50
61359;BME280;47228;46.762;23.598;2023-05-23T13:08:43;96864.73;;;25.17;30.69
61359;BME280;47228;46.762;23.598;2023-05-23T13:11:11;96862.62;;;25.24;30.16
61359;BME280;47228;46.762;23.598;2023-05-23T13:13:39;96864.00;;;25.32;30.83
61359;BME280;47228;46.762;23.598;2023-05-23T13:16:07;96857.98;;;25.39;30.89
61359;BME280;47228;46.762;23.598;2023-05-23T13:18:36;96857.61;;;25.46;30.10
61359;BME280;47228;46.762;23.598;2023-05-23T13:21:04;96858.33;;;25.51;30.13